地図

経路データ

SID SEASON NUMBER BASIN SUBBASIN NAME ISO_TIME NATURE LAT LON WMO_WIND WMO_PRES WMO_AGENCY TRACK_TYPE DIST2LAND LANDFALL IFLAG USA_AGENCY USA_ATCF_ID USA_LAT USA_LON USA_RECORD USA_STATUS USA_WIND USA_PRES USA_SSHS USA_R34_NE USA_R34_SE USA_R34_SW USA_R34_NW USA_R50_NE USA_R50_SE USA_R50_SW USA_R50_NW USA_R64_NE USA_R64_SE USA_R64_SW USA_R64_NW USA_POCI USA_ROCI USA_RMW USA_EYE TOKYO_LAT TOKYO_LON TOKYO_GRADE TOKYO_WIND TOKYO_PRES TOKYO_R50_DIR TOKYO_R50_LONG TOKYO_R50_SHORT TOKYO_R30_DIR TOKYO_R30_LONG TOKYO_R30_SHORT TOKYO_LAND CMA_LAT CMA_LON CMA_CAT CMA_WIND CMA_PRES HKO_LAT HKO_LON HKO_CAT HKO_WIND HKO_PRES NEWDELHI_LAT NEWDELHI_LON NEWDELHI_GRADE NEWDELHI_WIND NEWDELHI_PRES NEWDELHI_CI NEWDELHI_DP NEWDELHI_POCI REUNION_LAT REUNION_LON REUNION_TYPE REUNION_WIND REUNION_PRES REUNION_TNUM REUNION_CI REUNION_RMW REUNION_R34_NE REUNION_R34_SE REUNION_R34_SW REUNION_R34_NW REUNION_R50_NE REUNION_R50_SE REUNION_R50_SW REUNION_R50_NW REUNION_R64_NE REUNION_R64_SE REUNION_R64_SW REUNION_R64_NW BOM_LAT BOM_LON BOM_TYPE BOM_WIND BOM_PRES BOM_TNUM BOM_CI BOM_RMW BOM_R34_NE BOM_R34_SE BOM_R34_SW BOM_R34_NW BOM_R50_NE BOM_R50_SE BOM_R50_SW BOM_R50_NW BOM_R64_NE BOM_R64_SE BOM_R64_SW BOM_R64_NW BOM_ROCI BOM_POCI BOM_EYE BOM_POS_METHOD BOM_PRES_METHOD NADI_LAT NADI_LON NADI_CAT NADI_WIND NADI_PRES WELLINGTON_LAT WELLINGTON_LON WELLINGTON_WIND WELLINGTON_PRES DS824_LAT DS824_LON DS824_STAGE DS824_WIND DS824_PRES TD9636_LAT TD9636_LON TD9636_STAGE TD9636_WIND TD9636_PRES TD9635_LAT TD9635_LON TD9635_WIND TD9635_PRES TD9635_ROCI NEUMANN_LAT NEUMANN_LON NEUMANN_CLASS NEUMANN_WIND NEUMANN_PRES MLC_LAT MLC_LON MLC_CLASS MLC_WIND MLC_PRES USA_GUST BOM_GUST BOM_GUST_PER REUNION_GUST REUNION_GUST_PER USA_SEAHGT USA_SEARAD_NE USA_SEARAD_SE USA_SEARAD_SW USA_SEARAD_NW STORM_SPEED STORM_DIR
1948280N16095 1948 75 NI BB NOT_NAMED 1948-10-05 18:00:00 TS 15.7000 95.2000 main 10 0 O________O____ jtwc_io IO161948 15.7000 95.2000 -1 15.7000 95.2000 TC 18 309
1948280N16095 1948 75 NI BB NOT_NAMED 1948-10-05 21:00:00 TS 16.2583 94.4762 main 0 0 P________P____ IO161948 16.2583 94.4762 -1 16.2583 94.4762 TC 16 309
1948280N16095 1948 75 NI BB NOT_NAMED 1948-10-06 00:00:00 TS 16.7000 93.9000 main 48 48 O________O____ jtwc_io IO161948 16.7000 93.9000 -1 16.7000 93.9000 TC 25 11 309
1948280N16095 1948 75 NI BB NOT_NAMED 1948-10-06 03:00:00 TS 16.9575 93.5773 main 85 85 P________PO___ IO161948 16.9522 93.5745 -1 16.9522 93.5745 TC 25 17.0000 93.6000 1 6 311
1948280N16095 1948 75 NI BB NOT_NAMED 1948-10-06 06:00:00 TS 17.1066 93.4097 main 108 108 O________OP___ jtwc_io IO161948 17.1000 93.4000 -1 17.1000 93.4000 TC 25 17.1329 93.4486 1 4 314
1948280N16095 1948 75 NI BB NOT_NAMED 1948-10-06 09:00:00 TS 17.2643 93.2466 main 135 135 P________PP___ IO161948 17.2650 93.2274 -1 17.2650 93.2274 TC 25 17.2626 93.2977 1 4 316
1948280N16095 1948 75 NI BB NOT_NAMED 1948-10-06 12:00:00 TS 17.3953 93.1160 main 149 149 O________OP___ jtwc_io IO161948 17.4000 93.1000 -1 17.4000 93.1000 TC 25 17.3860 93.1479 1 3 316
1948280N16095 1948 75 NI BB NOT_NAMED 1948-10-06 15:00:00 TS 17.5050 93.0000 main 158 158 P________PO___ IO161948 17.5075 93.0000 -1 17.5075 93.0000 TC 25 17.5000 93.0000 1 3 313
1948280N16095 1948 75 NI BB NOT_NAMED 1948-10-06 18:00:00 TS 17.6016 92.8852 main 162 162 O________OP___ jtwc_io IO161948 17.6000 92.9000 -1 17.6000 92.9000 TC 25 17.6047 92.8556 1 3 307
1948280N16095 1948 75 NI BB NOT_NAMED 1948-10-06 21:00:00 TS 17.6942 92.7400 main 176 169 P________PP___ IO161948 17.6850 92.7500 -1 17.6850 92.7500 TC 25 17.7125 92.7199 1 3 308
1948280N16095 1948 75 NI BB NOT_NAMED 1948-10-07 00:00:00 TS 17.8130 92.5998 main 176 168 O________OP___ jtwc_io IO161948 17.8000 92.6000 -1 17.8000 92.6000 TC 25 17.8391 92.5993 1 4 321
1948280N16095 1948 75 NI BB NOT_NAMED 1948-10-07 03:00:00 TS 17.9850 92.4900 main 168 161 P________PO___ IO161948 17.9775 92.4850 -1 17.9775 92.4850 TC 25 18.0000 92.5000 1 4 334
1948280N16095 1948 75 NI BB NOT_NAMED 1948-10-07 06:00:00 TS 18.2047 92.4014 main 163 152 O________OP___ jtwc_io IO161948 18.2000 92.4000 -1 18.2000 92.4000 TC 25 18.2140 92.4043 1 5 342
1948280N16095 1948 75 NI BB NOT_NAMED 1948-10-07 09:00:00 TS 18.4491 92.3343 main 162 151 P________PP___ IO161948 18.4425 92.3350 -1 18.4425 92.3350 TC 25 18.4624 92.3328 1 5 349
1948280N16095 1948 75 NI BB NOT_NAMED 1948-10-07 12:00:00 TS 18.7099 92.2983 main 151 138 O________OP___ jtwc_io IO161948 18.7000 92.3000 -1 18.7000 92.3000 TC 25 18.7296 92.2949 1 5 356
1948280N16095 1948 75 NI BB NOT_NAMED 1948-10-07 15:00:00 TS 18.9667 92.2850 main 138 118 P________PO___ IO161948 18.9500 92.2775 -1 18.9500 92.2775 TC 25 19.0000 92.3000 1 5 0
1948280N16095 1948 75 NI BB NOT_NAMED 1948-10-07 18:00:00 TS 19.2244 92.3215 main 118 85 O________OP___ jtwc_io IO161948 19.2000 92.3000 -1 19.2000 92.3000 TC 25 19.2610 92.3537 1 5 13
1948280N16095 1948 75 NI BB NOT_NAMED 1948-10-07 21:00:00 TS 19.4769 92.4101 main 85 61 P________PP___ IO161948 19.4500 92.3824 -1 19.4500 92.3824 TC 25 19.5126 92.4470 1 5 22
1948280N16095 1948 75 NI BB NOT_NAMED 1948-10-08 00:00:00 TS 19.7290 92.5334 main 61 23 O________OP___ jtwc_io IO161948 19.7000 92.5000 -1 19.7000 92.5000 TC 25 19.7579 92.5667 1 6 28
1948280N16095 1948 75 NI BB NOT_NAMED 1948-10-08 03:00:00 NR 20.0000 92.7000 main 23 __________O___ IO161948 -1 TC 20.0000 92.7000 1 6 30

IBTrACS Databaseについて

本データベースは、米国NOAAが公開する1842年以降の世界の熱帯低気圧のベストトラックデータアーカイブInternational Best Track Archive for Climate Stewardship (IBTrACS)を、ウェブで閲覧しやすい形式に変換したものです。

最終更新日:2021-12-06